Time;durP1;ratioP1;P1;durP2;ratioP2;P2;SDS_P1;SDS_P2;PMS_P1;PMS_P2;Temp;Humidity;BMP_temperature;BMP_pressure;BME280_temperature;BME280_humidity;BME280_pressure;Samples;Min_cycle;Max_cycle;Signal;HPM_P1;HPM_P2
2023/09/04 00:00:40;;;;;;;7.95;3.30;;;486.50;2380.80;;;;;;5034958;28;20074;-72
2023/09/04 00:03:06;;;;;;;7.82;3.05;;;486.50;2380.80;;;;;;5035973;28;20390;-72
2023/09/04 00:05:35;;;;;;;9.27;3.53;;;461.70;2380.80;;;;;;5036045;28;20022;-72
2023/09/04 00:08:01;;;;;;;5.32;3.47;;;486.40;2380.80;;;;;;5036115;28;20025;-72
2023/09/04 00:10:27;;;;;;;8.30;3.45;;;486.40;2380.80;;;;;;5035895;28;20017;-72
2023/09/04 00:12:52;;;;;;;6.80;2.90;;;486.50;2380.80;;;;;;5035884;28;20048;-72
2023/09/04 00:15:18;;;;;;;5.78;2.90;;;486.40;2380.80;;;;;;5036112;28;20037;-73
2023/09/04 00:17:49;;;;;;;4.65;2.60;;;486.40;2380.80;;;;;;5035983;28;20030;-73
2023/09/04 00:20:15;;;;;;;8.40;2.65;;;486.50;2380.80;;;;;;5035883;28;20095;-72
2023/09/04 00:22:41;;;;;;;7.93;3.20;;;461.70;2380.80;;;;;;5036029;28;20470;-74
2023/09/04 00:25:07;;;;;;;7.72;3.08;;;461.70;2380.80;;;;;;5035668;28;20026;-73
2023/09/04 00:27:32;;;;;;;6.32;2.33;;;461.70;2380.80;;;;;;5035513;28;20029;-72
2023/09/04 00:29:58;;;;;;;6.95;3.10;;;461.50;2380.80;;;;;;5035698;28;20038;-74
2023/09/04 00:32:24;;;;;;;9.90;3.00;;;461.40;2380.80;;;;;;5035163;28;20037;-73
2023/09/04 00:34:50;;;;;;;3.65;2.15;;;461.50;2380.80;;;;;;5035765;28;20041;-73
2023/09/04 00:37:15;;;;;;;7.47;2.67;;;461.50;2380.80;;;;;;5035619;28;20022;-73
2023/09/04 00:39:41;;;;;;;6.97;2.63;;;461.60;2380.80;;;;;;5035408;28;20040;-72
2023/09/04 00:42:09;;;;;;;8.35;2.50;;;461.50;2380.80;;;;;;5035186;28;20071;-72
2023/09/04 00:44:34;;;;;;;5.80;3.03;;;461.50;2380.80;;;;;;5035367;28;20029;-73
2023/09/04 00:47:00;;;;;;;5.47;2.80;;;461.70;2380.80;;;;;;5035505;28;20026;-73
2023/09/04 00:49:28;;;;;;;7.93;2.85;;;461.70;2380.80;;;;;;5033958;28;20497;-73
2023/09/04 00:51:55;;;;;;;4.68;2.63;;;461.60;2380.80;;;;;;5035242;28;20040;-72
2023/09/04 00:54:22;;;;;;;8.13;3.33;;;461.70;2380.80;;;;;;5035027;28;20033;-72
2023/09/04 00:56:51;;;;;;;5.40;2.60;;;461.70;2380.80;;;;;;5034862;28;20038;-73
2023/09/04 00:59:17;;;;;;;7.18;2.90;;;461.70;2380.80;;;;;;5033081;28;20029;-72
2023/09/04 01:01:43;;;;;;;5.30;2.53;;;461.50;2380.80;;;;;;5033867;28;20034;-73
2023/09/04 01:04:09;;;;;;;6.40;2.30;;;461.50;2380.80;;;;;;5035122;28;20072;-72
2023/09/04 01:06:35;;;;;;;5.95;2.45;;;461.50;2380.80;;;;;;5033705;28;20051;-72
2023/09/04 01:09:01;;;;;;;4.68;2.70;;;461.40;2380.80;;;;;;5034975;28;20469;-72
2023/09/04 01:11:42;;;;;;;6.18;2.67;;;461.40;2380.80;;;;;;5034773;28;20441;-72
2023/09/04 01:14:16;;;;;;;6.00;3.03;;;461.40;2380.80;;;;;;5034694;28;20508;-74
2023/09/04 01:16:42;;;;;;;6.22;3.30;;;461.40;2380.80;;;;;;5035024;28;20021;-72
2023/09/04 01:19:10;;;;;;;7.05;2.95;;;461.40;2380.80;;;;;;5034713;28;20017;-72
2023/09/04 01:21:39;;;;;;;9.07;4.47;;;461.40;2380.80;;;;;;5033540;28;20460;-72
2023/09/04 01:24:08;;;;;;;7.07;3.85;;;461.30;2380.80;;;;;;5034525;28;20033;-72
2023/09/04 01:26:42;;;;;;;7.97;3.28;;;461.30;2380.80;;;;;;5034477;28;20049;-74
2023/09/04 01:29:28;;;;;;;5.03;3.25;;;461.20;2380.80;;;;;;5034557;28;20389;-73
2023/09/04 01:32:10;;;;;;;9.20;4.15;;;461.30;2380.80;;;;;;5034417;28;20500;-72
2023/09/04 01:34:46;;;;;;;6.68;2.97;;;461.20;2380.80;;;;;;5034442;28;20481;-72
2023/09/04 01:37:13;;;;;;;;;;;461.00;2380.80;;;;;;5034900;28;20104;-73
2023/09/04 01:39:40;;;;;;;7.47;3.33;;;460.90;2380.80;;;;;;5034226;28;20278;-72
2023/09/04 01:42:06;;;;;;;18.35;3.78;;;460.90;2380.80;;;;;;5034133;28;20034;-73
2023/09/04 01:44:33;;;;;;;6.20;2.92;;;460.90;2380.80;;;;;;5034151;28;20116;-72
2023/09/04 01:46:59;;;;;;;7.72;3.30;;;460.90;2380.80;;;;;;5034189;28;20068;-72
2023/09/04 01:49:24;;;;;;;5.95;3.30;;;460.90;2380.80;;;;;;5034209;28;20029;-74
2023/09/04 01:51:51;;;;;;;6.50;3.75;;;460.90;2380.80;;;;;;5032837;28;20029;-72
2023/09/04 01:54:17;;;;;;;7.15;3.72;;;460.90;2380.80;;;;;;5034150;28;20108;-72
2023/09/04 01:56:43;;;;;;;7.70;3.67;;;460.90;2380.80;;;;;;5034119;28;20554;-73
2023/09/04 01:59:09;;;;;;;7.18;4.10;;;460.90;2380.80;;;;;;5033817;28;20104;-72
2023/09/04 02:01:35;;;;;;;8.18;4.10;;;460.90;2380.80;;;;;;5033759;28;20382;-72
2023/09/04 02:04:01;;;;;;;9.38;4.40;;;460.80;2380.80;;;;;;5033772;28;20052;-72
2023/09/04 02:06:29;;;;;;;8.50;4.65;;;460.80;2380.80;;;;;;5033758;28;20469;-73
2023/09/04 02:08:55;;;;;;;7.95;4.13;;;460.90;2380.80;;;;;;5033907;28;20033;-75
2023/09/04 02:11:21;;;;;;;9.73;4.32;;;460.90;2380.80;;;;;;5032979;28;20025;-72
2023/09/04 02:13:47;;;;;;;7.88;4.63;;;461.00;2380.80;;;;;;5033671;28;20367;-72
2023/09/04 02:16:13;;;;;;;7.03;4.57;;;460.90;2380.80;;;;;;5033646;28;20017;-75
2023/09/04 02:18:39;;;;;;;12.80;5.18;;;461.00;2380.80;;;;;;5033507;28;20489;-72
2023/09/04 02:21:06;;;;;;;13.38;4.90;;;461.00;2380.80;;;;;;5033620;28;20032;-72
2023/09/04 02:23:32;;;;;;;9.57;5.15;;;461.00;2380.80;;;;;;5033251;28;20021;-73
2023/09/04 02:25:58;;;;;;;9.40;4.63;;;460.90;2380.80;;;;;;5033041;28;20029;-73
2023/09/04 02:28:24;;;;;;;6.43;4.65;;;460.90;2380.80;;;;;;5032631;28;20033;-73
2023/09/04 02:30:50;;;;;;;8.52;5.03;;;460.90;2380.80;;;;;;5032826;28;20057;-72
2023/09/04 02:33:16;;;;;;;8.90;4.70;;;460.90;2380.80;;;;;;5032403;28;20046;-73
2023/09/04 02:35:42;;;;;;;8.77;4.88;;;460.80;2380.80;;;;;;5032660;28;20037;-72
2023/09/04 02:38:07;;;;;;;9.27;4.97;;;436.10;2355.20;;;;;;5031592;28;20024;-73
2023/09/04 02:40:33;;;;;;;9.05;5.55;;;436.00;2355.20;;;;;;5031549;28;20116;-74
2023/09/04 02:42:59;;;;;;;10.57;5.55;;;436.10;2355.20;;;;;;5032756;28;20022;-72
2023/09/04 02:45:25;;;;;;;9.77;5.20;;;460.80;2380.80;;;;;;5032785;28;20033;-73
2023/09/04 02:47:51;;;;;;;7.80;5.15;;;436.10;2355.20;;;;;;5032684;28;20021;-73
2023/09/04 02:50:17;;;;;;;10.45;4.85;;;436.10;2355.20;;;;;;5032547;28;20079;-73
2023/09/04 02:52:43;;;;;;;9.55;5.80;;;436.10;2355.20;;;;;;5032527;28;20104;-73
2023/09/04 02:55:09;;;;;;;8.48;5.03;;;460.80;2380.80;;;;;;5032512;28;20443;-73
2023/09/04 02:57:35;;;;;;;7.53;5.05;;;436.10;2355.20;;;;;;5032484;28;20022;-72
2023/09/04 03:00:05;;;;;;;7.70;5.43;;;436.00;2355.20;;;;;;5032707;28;20029;-73
2023/09/04 03:02:33;;;;;;;8.02;5.32;;;435.90;2355.20;;;;;;5032312;28;20489;-73
2023/09/04 03:04:58;;;;;;;8.90;5.97;;;436.00;2355.20;;;;;;5032344;28;20036;-74
2023/09/04 03:07:27;;;;;;;7.47;5.47;;;435.90;2355.20;;;;;;5032412;28;20026;-73
2023/09/04 03:09:57;;;;;;;10.38;7.18;;;435.90;2355.20;;;;;;5032631;28;20034;-72
2023/09/04 03:12:29;;;;;;;9.80;6.70;;;435.90;2355.20;;;;;;5032444;28;20026;-72
2023/09/04 03:14:58;;;;;;;10.30;5.82;;;435.90;2355.20;;;;;;5032334;28;20039;-72
2023/09/04 03:17:27;;;;;;;11.45;5.88;;;435.90;2355.20;;;;;;5032168;28;20014;-72
2023/09/04 03:19:54;;;;;;;10.95;6.65;;;435.90;2355.20;;;;;;5032466;28;20534;-74
2023/09/04 03:22:21;;;;;;;8.38;6.28;;;435.80;2355.20;;;;;;5032233;28;20025;-74
2023/09/04 03:24:47;;;;;;;8.30;6.30;;;435.80;2355.20;;;;;;5036205;28;20025;-72
2023/09/04 03:27:12;;;;;;;10.60;6.85;;;435.90;2355.20;;;;;;5036337;28;20020;-72
2023/09/04 03:29:38;;;;;;;9.13;6.00;;;435.90;2355.20;;;;;;5035034;28;20041;-73
2023/09/04 03:32:05;;;;;;;9.85;6.07;;;435.90;2355.20;;;;;;5035823;28;20026;-73
2023/09/04 03:34:31;;;;;;;9.20;5.32;;;435.90;2355.20;;;;;;5035757;28;20516;-72
2023/09/04 03:36:57;;;;;;;10.38;6.00;;;435.90;2355.20;;;;;;5034707;28;20084;-74
2023/09/04 03:39:23;;;;;;;9.60;6.70;;;436.00;2355.20;;;;;;5035999;28;20104;-73
2023/09/04 03:41:49;;;;;;;12.45;7.57;;;435.90;2355.20;;;;;;5035964;28;20422;-73
2023/09/04 03:44:14;;;;;;;8.52;6.32;;;435.80;2355.20;;;;;;5035743;28;20025;-72
2023/09/04 03:46:40;;;;;;;11.70;6.80;;;435.80;2355.20;;;;;;5035157;28;20513;-73
2023/09/04 03:49:06;;;;;;;7.90;6.05;;;435.80;2355.20;;;;;;5035746;28;20061;-72
2023/09/04 03:51:33;;;;;;;7.82;5.80;;;435.90;2355.20;;;;;;5035931;28;20096;-73
2023/09/04 03:54:02;;;;;;;10.55;5.93;;;435.90;2355.20;;;;;;5035160;28;20566;-73
2023/09/04 03:56:28;;;;;;;9.10;5.88;;;435.80;2355.20;;;;;;5035731;28;20017;-73
2023/09/04 03:58:55;;;;;;;8.57;5.95;;;435.80;2355.20;;;;;;5035585;28;20374;-73
2023/09/04 04:01:22;;;;;;;12.27;7.05;;;435.80;2355.20;;;;;;5035761;28;20502;-72
2023/09/04 04:03:48;;;;;;;9.55;6.22;;;435.80;2355.20;;;;;;5035305;28;20052;-74
2023/09/04 04:06:14;;;;;;;9.57;6.03;;;435.80;2355.20;;;;;;5035396;28;20034;-74
2023/09/04 04:08:40;;;;;;;10.48;5.50;;;435.80;2355.20;;;;;;5035432;28;20033;-74
2023/09/04 04:11:06;;;;;;;10.13;6.00;;;435.80;2355.20;;;;;;5035386;28;20429;-74
2023/09/04 04:13:32;;;;;;;8.55;5.68;;;435.80;2355.20;;;;;;5035205;28;20028;-76
2023/09/04 04:16:02;;;;;;;11.65;6.30;;;435.90;2355.20;;;;;;5035343;28;20041;-74
2023/09/04 04:18:29;;;;;;;6.45;5.20;;;435.70;2355.20;;;;;;5035089;28;20025;-74
2023/09/04 04:20:54;;;;;;;13.13;6.15;;;435.80;2355.20;;;;;;5035218;28;20029;-74
2023/09/04 04:23:20;;;;;;;7.05;5.28;;;435.80;2355.20;;;;;;5035149;28;20025;-74
2023/09/04 04:25:49;;;;;;;8.80;5.70;;;435.80;2355.20;;;;;;5035018;28;20045;-74
2023/09/04 04:28:21;;;;;;;8.73;6.25;;;435.80;2355.20;;;;;;5034958;28;20053;-74
2023/09/04 04:30:47;;;;;;;9.23;6.15;;;435.80;2355.20;;;;;;5035025;28;20079;-74
2023/09/04 04:33:13;;;;;;;12.00;6.07;;;435.70;2355.20;;;;;;5034586;28;20474;-75
2023/09/04 04:35:40;;;;;;;8.80;5.35;;;435.80;2355.20;;;;;;5034033;28;20455;-74
2023/09/04 04:38:06;;;;;;;8.93;5.60;;;435.80;2355.20;;;;;;5035019;28;20029;-73
2023/09/04 04:40:32;;;;;;;11.02;5.93;;;435.60;2355.20;;;;;;5034620;28;20022;-74
2023/09/04 04:42:58;;;;;;;10.13;6.18;;;435.80;2355.20;;;;;;5033542;28;20038;-74
2023/09/04 04:45:24;;;;;;;9.85;5.93;;;435.70;2355.20;;;;;;5033214;28;20474;-75
2023/09/04 04:47:49;;;;;;;12.30;5.60;;;435.60;2355.20;;;;;;5033693;28;20032;-74
2023/09/04 04:50:15;;;;;;;7.53;6.03;;;435.50;2355.20;;;;;;5033804;28;20116;-74
2023/09/04 04:52:41;;;;;;;8.07;6.10;;;435.60;2355.20;;;;;;5033786;28;20466;-73
2023/09/04 04:55:09;;;;;;;9.13;5.20;;;435.60;2355.20;;;;;;5038987;28;20033;-73
2023/09/04 04:57:35;;;;;;;7.20;5.30;;;435.60;2355.20;;;;;;5043841;28;20014;-73
2023/09/04 05:00:06;;;;;;;6.55;5.40;;;435.60;2355.20;;;;;;5044256;28;20021;-74
2023/09/04 05:02:35;;;;;;;11.48;6.35;;;435.60;2355.20;;;;;;5044768;28;20021;-73
2023/09/04 05:05:01;;;;;;;8.88;5.45;;;435.60;2355.20;;;;;;5043070;28;20076;-73
2023/09/04 05:07:29;;;;;;;8.95;4.85;;;435.70;2355.20;;;;;;5044152;28;20079;-73
2023/09/04 05:09:56;;;;;;;10.23;6.18;;;435.80;2355.20;;;;;;5035729;28;20204;-74
2023/09/04 05:12:22;;;;;;;7.80;5.90;;;435.80;2355.20;;;;;;5037282;28;20406;-74
2023/09/04 05:14:48;;;;;;;10.18;5.88;;;435.80;2355.20;;;;;;5046162;28;20032;-74
2023/09/04 05:17:14;;;;;;;10.63;5.53;;;435.80;2355.20;;;;;;5038247;28;20026;-74
2023/09/04 05:19:40;;;;;;;8.63;5.88;;;435.90;2355.20;;;;;;5040628;28;20025;-75
2023/09/04 05:22:06;;;;;;;10.52;5.88;;;435.90;2355.20;;;;;;5043977;28;20017;-74
2023/09/04 05:24:32;;;;;;;9.18;5.47;;;435.90;2355.20;;;;;;5045686;28;20044;-75
2023/09/04 05:26:58;;;;;;;7.43;5.13;;;436.00;2355.20;;;;;;5041529;28;20056;-74
2023/09/04 05:29:24;;;;;;;11.38;5.30;;;436.00;2355.20;;;;;;5041712;28;20017;-74
2023/09/04 05:31:53;;;;;;;11.05;5.43;;;436.00;2355.20;;;;;;5043409;28;21070;-75
2023/09/04 05:34:19;;;;;;;8.43;5.38;;;436.00;2355.20;;;;;;5040523;28;20046;-74
2023/09/04 05:36:45;;;;;;;11.75;5.88;;;436.10;2355.20;;;;;;5044259;28;20037;-74
2023/09/04 05:39:10;;;;;;;8.50;5.82;;;436.00;2355.20;;;;;;5043537;28;20473;-74
2023/09/04 05:41:37;;;;;;;15.32;5.45;;;436.00;2355.20;;;;;;5042750;28;20029;-74
2023/09/04 05:44:03;;;;;;;7.95;6.28;;;436.10;2355.20;;;;;;5036095;28;20377;-74
2023/09/04 05:46:30;;;;;;;11.48;5.85;;;436.10;2355.20;;;;;;5039290;28;20029;-73
2023/09/04 05:48:56;;;;;;;7.15;5.82;;;460.80;2380.80;;;;;;5041544;28;20025;-74
2023/09/04 05:51:22;;;;;;;9.20;6.15;;;460.80;2380.80;;;;;;5041670;28;20036;-72
2023/09/04 05:53:47;;;;;;;7.65;5.57;;;460.90;2380.80;;;;;;5038223;28;20025;-74
2023/09/04 05:56:14;;;;;;;8.40;5.93;;;460.90;2380.80;;;;;;5044940;28;20025;-75
2023/09/04 05:58:46;;;;;;;16.52;6.63;;;460.90;2380.80;;;;;;5041687;28;20024;-72
2023/09/04 06:01:12;;;;;;;13.25;6.25;;;461.00;2380.80;;;;;;5036565;28;20033;-74
2023/09/04 06:03:40;;;;;;;8.85;5.82;;;461.00;2380.80;;;;;;5037704;28;20474;-74
2023/09/04 06:06:06;;;;;;;6.25;5.10;;;461.10;2380.80;;;;;;5041799;28;20026;-73
2023/09/04 06:08:36;;;;;;;7.93;5.43;;;461.30;2380.80;;;;;;5045721;28;20021;-73
2023/09/04 06:11:02;;;;;;;8.93;5.22;;;461.40;2380.80;;;;;;5039384;28;20034;-73
2023/09/04 06:13:29;;;;;;;14.77;6.22;;;461.40;2380.80;;;;;;5044846;28;20474;-71
2023/09/04 06:15:55;;;;;;;9.57;5.38;;;461.50;2380.80;;;;;;5046679;28;20464;-74
2023/09/04 06:18:21;;;;;;;8.93;5.63;;;461.50;2380.80;;;;;;5038678;28;20108;-75
2023/09/04 06:20:47;;;;;;;8.90;5.15;;;461.60;2380.80;;;;;;5041397;28;20025;-72
2023/09/04 06:23:13;;;;;;;12.93;5.95;;;461.70;2380.80;;;;;;5033992;28;20033;-73
2023/09/04 06:25:41;;;;;;;7.00;5.18;;;461.70;2380.80;;;;;;5039812;28;20017;-71
2023/09/04 06:28:08;;;;;;;11.27;5.47;;;486.50;2380.80;;;;;;5040439;28;20032;-73
2023/09/04 06:30:34;;;;;;;9.13;5.18;;;486.60;2380.80;;;;;;5042038;28;20033;-73
2023/09/04 06:33:00;;;;;;;7.68;5.60;;;486.70;2380.80;;;;;;5038215;28;20041;-73
2023/09/04 06:35:26;;;;;;;11.75;5.50;;;486.70;2380.80;;;;;;5044470;28;20040;-73
2023/09/04 06:37:52;;;;;;;10.90;6.38;;;486.70;2380.80;;;;;;5039231;28;20021;-72
2023/09/04 06:40:18;;;;;;;6.15;4.75;;;486.80;2380.80;;;;;;5042718;28;20436;-73
2023/09/04 06:42:43;;;;;;;10.48;5.63;;;486.90;2380.80;;;;;;5035184;28;20041;-73
2023/09/04 06:45:09;;;;;;;8.48;5.90;;;487.10;2380.80;;;;;;5037055;28;20378;-73
2023/09/04 06:47:35;;;;;;;8.25;5.82;;;487.00;2380.80;;;;;;5035903;28;20021;-73
2023/09/04 06:50:02;;;;;;;11.60;6.03;;;487.20;2380.80;;;;;;5043751;28;20020;-74
2023/09/04 06:52:28;;;;;;;6.72;4.85;;;487.20;2380.80;;;;;;5045319;28;20029;-73
2023/09/04 06:54:53;;;;;;;9.27;5.90;;;487.30;2380.80;;;;;;5037764;28;20112;-73
2023/09/04 06:57:19;;;;;;;10.98;5.20;;;512.20;2380.80;;;;;;5041500;28;20083;-73
2023/09/04 06:59:45;;;;;;;8.45;4.80;;;512.30;2380.80;;;;;;5032907;28;20026;-74
2023/09/04 07:02:10;;;;;;;6.90;5.15;;;512.60;2380.80;;;;;;5041431;28;20040;-73
2023/09/04 07:04:36;;;;;;;8.98;5.90;;;512.80;2380.80;;;;;;5046856;28;20432;-73
2023/09/04 07:07:02;;;;;;;7.15;5.00;;;537.60;2406.40;;;;;;5040531;28;20419;-72
2023/09/04 07:09:28;;;;;;;7.35;4.93;;;537.80;2406.40;;;;;;5036972;28;20481;-73
2023/09/04 07:11:54;;;;;;;9.15;4.70;;;;;;;;;;5041013;28;20107;-73
2023/09/04 07:14:20;;;;;;;11.48;4.88;;;538.20;2406.40;;;;;;5043312;28;20107;-73
2023/09/04 07:16:45;;;;;;;12.55;4.82;;;538.40;2406.40;;;;;;5040177;28;20103;-74
2023/09/04 07:19:11;;;;;;;6.70;4.57;;;563.20;2432.00;;;;;;5037006;28;20033;-74
2023/09/04 07:21:37;;;;;;;8.98;5.10;;;563.40;2432.00;;;;;;5035588;28;20033;-73
2023/09/04 07:24:03;;;;;;;6.85;4.40;;;563.60;2432.00;;;;;;5034830;28;20373;-74
2023/09/04 07:26:29;;;;;;;8.45;4.65;;;563.60;2432.00;;;;;;5039418;28;20017;-73
2023/09/04 07:28:55;;;;;;;7.72;5.70;;;563.60;2432.00;;;;;;5035199;28;20026;-74
2023/09/04 07:31:21;;;;;;;7.85;4.80;;;563.80;2432.00;;;;;;5040991;28;20112;-73
2023/09/04 07:33:48;;;;;;;7.63;5.32;;;564.10;2432.00;;;;;;5037776;28;20490;-73
2023/09/04 07:36:14;;;;;;;5.55;4.35;;;588.90;2432.00;;;;;;5035069;28;20091;-72
2023/09/04 07:38:40;;;;;;;7.82;4.32;;;564.10;2432.00;;;;;;5038102;28;20470;-72
2023/09/04 07:41:06;;;;;;;7.40;5.40;;;564.10;2432.00;;;;;;5039899;28;20021;-72
2023/09/04 07:43:33;;;;;;;6.72;4.35;;;588.90;2432.00;;;;;;5036508;28;20028;-73
2023/09/04 07:46:00;;;;;;;8.93;4.65;;;588.90;2432.00;;;;;;5033950;28;20394;-72
2023/09/04 07:48:26;;;;;;;11.40;5.07;;;589.20;2432.00;;;;;;5038127;28;20025;-73
2023/09/04 07:50:52;;;;;;;10.20;5.03;;;589.40;2432.00;;;;;;5039118;28;20022;-72
2023/09/04 07:53:21;;;;;;;8.57;5.18;;;589.50;2432.00;;;;;;5041737;28;20029;-73
2023/09/04 07:55:47;;;;;;;9.23;4.72;;;589.60;2432.00;;;;;;5034884;28;20037;-72
2023/09/04 07:58:13;;;;;;;6.25;4.30;;;589.70;2432.00;;;;;;5036209;28;20060;-72
2023/09/04 08:00:49;;;;;;;6.35;4.75;;;614.70;2432.00;;;;;;5036525;28;20033;-73
2023/09/04 08:03:15;;;;;;;6.60;4.72;;;614.50;2432.00;;;;;;5038539;28;20042;-71
2023/09/04 08:05:41;;;;;;;9.43;5.40;;;614.60;2432.00;;;;;;5039666;28;20418;-71
2023/09/04 08:08:11;;;;;;;8.93;4.80;;;614.50;2432.00;;;;;;5046290;28;20100;-73
2023/09/04 08:10:44;;;;;;;8.80;4.32;;;614.60;2432.00;;;;;;5039954;28;20017;-73
2023/09/04 08:13:11;;;;;;;7.28;4.43;;;614.80;2432.00;;;;;;5045205;28;20116;-72
2023/09/04 08:15:37;;;;;;;9.18;4.43;;;615.00;2432.00;;;;;;5045651;28;20106;-72
2023/09/04 08:18:03;;;;;;;7.63;4.78;;;615.20;2432.00;;;;;;5046530;28;20025;-74
2023/09/04 08:20:28;;;;;;;5.97;4.22;;;640.00;2432.00;;;;;;5044059;28;20465;-74
2023/09/04 08:22:54;;;;;;;11.38;4.68;;;615.20;2432.00;;;;;;5046772;28;20431;-73
2023/09/04 08:25:20;;;;;;;8.50;4.57;;;640.00;2432.00;;;;;;5036626;28;20029;-73
2023/09/04 08:27:45;;;;;;;5.93;4.40;;;640.20;2406.40;;;;;;5040184;28;20382;-74
2023/09/04 08:30:11;;;;;;;10.40;4.53;;;640.20;2380.80;;;;;;5045761;28;20033;-74
2023/09/04 08:32:37;;;;;;;8.60;4.80;;;640.00;2380.80;;;;;;5043190;28;20399;-75
2023/09/04 08:35:04;;;;;;;9.52;5.18;;;640.10;2380.80;;;;;;5041726;28;20037;-74
2023/09/04 08:37:29;;;;;;;8.40;4.30;;;640.40;2380.80;;;;;;5042893;28;20013;-73
2023/09/04 08:39:55;;;;;;;6.75;4.40;;;640.30;2380.80;;;;;;5045184;28;20026;-73
2023/09/04 08:42:22;;;;;;;9.05;5.18;;;640.00;2355.20;;;;;;5042723;28;20473;-74
2023/09/04 08:44:50;;;;;;;10.23;4.75;;;640.40;2355.20;;;;;;5040618;28;20470;-74
2023/09/04 08:47:19;;;;;;;7.88;4.40;;;640.50;2355.20;;;;;;5035997;28;20030;-73
2023/09/04 08:49:45;;;;;;;6.55;4.88;;;640.70;2329.60;;;;;;5040270;28;20127;-71
2023/09/04 08:52:12;;;;;;;4.65;3.60;;;640.70;2329.60;;;;;;5040162;28;20524;-70
2023/09/04 08:54:39;;;;;;;6.13;4.15;;;640.90;2329.60;;;;;;5046458;28;20025;-73
2023/09/04 08:57:04;;;;;;;7.15;4.10;;;665.60;2329.60;;;;;;5043300;28;20550;-74
2023/09/04 08:59:30;;;;;;;9.75;4.15;;;665.90;2252.80;;;;;;5041281;28;20119;-71
2023/09/04 09:02:00;;;;;;;15.18;3.92;;;665.90;2252.80;;;;;;5039674;28;20033;-73
2023/09/04 09:04:26;;;;;;;6.43;4.30;;;666.00;2201.60;;;;;;5035754;28;20025;-73
2023/09/04 09:06:53;;;;;;;7.47;4.00;;;666.10;2176.00;;;;;;5042613;28;20058;-73
2023/09/04 09:09:23;;;;;;;9.52;3.42;;;666.20;2227.20;;;;;;5038018;28;20478;-72
2023/09/04 09:11:54;;;;;;;7.03;4.03;;;666.00;2432.00;;;;;;5038722;28;20505;-74
2023/09/04 09:14:21;;;;;;;5.35;3.63;;;666.30;2150.40;;;;;;5042638;28;20029;-73
2023/09/04 09:16:47;;;;;;;5.15;3.95;;;666.30;2124.80;;;;;;5046343;28;20044;-72
2023/09/04 09:19:14;;;;;;;6.68;3.75;;;666.00;2099.20;;;;;;5041030;28;20017;-73
2023/09/04 09:21:40;;;;;;;9.45;4.10;;;666.30;2048.00;;;;;;5040395;28;20028;-72
2023/09/04 09:24:13;;;;;;;6.55;3.97;;;666.50;2073.60;;;;;;5037687;28;20025;-74
2023/09/04 09:26:41;;;;;;;6.25;3.58;;;691.20;2022.40;;;;;;5038432;28;20025;-73
2023/09/04 09:29:08;;;;;;;5.95;3.85;;;691.40;2048.00;;;;;;5043884;28;20029;-73
2023/09/04 09:31:35;;;;;;;11.00;4.22;;;666.50;2048.00;;;;;;5040867;28;20203;-72
2023/09/04 09:34:01;;;;;;;5.88;3.78;;;691.40;2022.40;;;;;;5037418;28;20049;-73
2023/09/04 09:36:28;;;;;;;5.10;4.10;;;691.70;1996.80;;;;;;5041458;28;20042;-74
2023/09/04 09:38:54;;;;;;;6.07;3.75;;;691.30;1996.80;;;;;;5039460;28;20021;-70
2023/09/04 09:41:20;;;;;;;8.70;4.32;;;691.70;1971.20;;;;;;5042066;28;20018;-71
2023/09/04 09:43:46;;;;;;;5.05;3.92;;;691.50;1996.80;;;;;;5038511;28;20025;-70
2023/09/04 09:46:16;;;;;;;7.95;4.20;;;691.70;1996.80;;;;;;5039621;28;20029;-70
2023/09/04 09:48:44;;;;;;;4.50;3.30;;;691.30;2022.40;;;;;;5046516;28;20027;-71
2023/09/04 09:51:10;;;;;;;4.90;3.35;;;691.50;1971.20;;;;;;5042860;28;20029;-71
2023/09/04 09:53:47;;;;;;;7.53;3.78;;;691.80;1945.60;;;;;;5039715;28;20543;-72
2023/09/04 09:56:14;;;;;;;6.97;3.33;;;691.90;1945.60;;;;;;5035019;28;20044;-72
2023/09/04 09:58:42;;;;;;;5.65;4.15;;;691.80;1920.00;;;;;;5038148;28;20033;-73
2023/09/04 10:01:09;;;;;;;4.63;3.30;;;692.00;1920.00;;;;;;5036468;28;20040;-72
2023/09/04 10:03:36;;;;;;;5.28;3.33;;;692.00;1971.20;;;;;;5038218;28;20091;-71
2023/09/04 10:06:08;;;;;;;6.00;3.20;;;691.90;1894.40;;;;;;5034885;28;20064;-72
2023/09/04 10:08:39;;;;;;;10.90;4.20;;;716.90;1920.00;;;;;;5039500;28;20017;-71
2023/09/04 10:11:12;;;;;;;6.13;3.67;;;716.80;1868.80;;;;;;5040133;28;20029;-71
2023/09/04 10:13:43;;;;;;;5.43;4.10;;;717.40;1894.40;;;;;;5030097;28;20056;-72
2023/09/04 10:16:13;;;;;;;5.30;3.72;;;716.90;1894.40;;;;;;5044600;28;20033;-72
2023/09/04 10:18:43;;;;;;;8.15;3.88;;;717.10;1843.20;;;;;;5036935;28;20028;-72
2023/09/04 10:21:12;;;;;;;6.55;3.55;;;;;;;;;;5035393;28;20133;-73
2023/09/04 10:23:46;;;;;;;6.35;4.45;;;742.40;1868.80;;;;;;5036889;28;20502;-71
2023/09/04 10:26:43;;;;;;;9.35;3.35;;;717.70;1843.20;;;;;;5038251;28;20037;-71
2023/09/04 10:29:13;;;;;;;5.03;3.83;;;717.10;1843.20;;;;;;5037518;28;20116;-71
2023/09/04 10:31:40;;;;;;;5.85;4.10;;;691.70;1868.80;;;;;;5045529;28;20068;-72
2023/09/04 10:34:06;;;;;;;6.22;3.75;;;692.10;1894.40;;;;;;5037011;28;20052;-72
2023/09/04 10:36:32;;;;;;;8.88;4.18;;;717.10;1817.60;;;;;;5042178;28;20509;-75
2023/09/04 10:38:59;;;;;;;5.75;3.33;;;717.30;1766.40;;;;;;5041970;28;20025;-72
2023/09/04 10:41:27;;;;;;;5.85;4.05;;;717.50;1792.00;;;;;;5044644;28;20378;-73
2023/09/04 10:43:52;;;;;;;10.38;3.67;;;716.90;1843.20;;;;;;5048718;28;20025;-71
2023/09/04 10:46:18;;;;;;;5.32;3.72;;;692.00;1766.40;;;;;;5031897;28;20025;-73
2023/09/04 10:48:46;;;;;;;4.88;3.42;;;691.70;1766.40;;;;;;5036110;28;20032;-76
2023/09/04 10:51:30;;;;;;;7.22;3.90;;;716.80;1792.00;;;;;;5039120;28;20021;-73
2023/09/04 10:53:58;;;;;;;6.30;4.13;;;717.30;1792.00;;;;;;5035994;28;20025;-72
2023/09/04 10:56:24;;;;;;;4.97;3.53;;;717.60;1715.20;;;;;;5042379;28;20044;-73
2023/09/04 10:59:03;;;;;;;5.25;3.65;;;692.10;1740.80;;;;;;5040463;28;20018;-72
2023/09/04 11:01:36;;;;;;;4.68;3.13;;;692.00;1740.80;;;;;;5036025;28;20086;-72
2023/09/04 11:04:08;;;;;;;7.15;3.47;;;716.90;1792.00;;;;;;5044545;28;20485;-72
2023/09/04 11:07:12;;;;;;;5.55;3.83;;;717.00;1740.80;;;;;;5042001;28;20111;-72
2023/09/04 11:09:38;;;;;;;8.23;3.55;;;717.70;1740.80;;;;;;5042610;28;20041;-73
2023/09/04 11:12:10;;;;;;;5.95;2.90;;;742.40;1715.20;;;;;;5041488;28;20027;-73
2023/09/04 11:14:45;;;;;;;4.82;3.40;;;742.40;1740.80;;;;;;5042742;28;20037;-73
2023/09/04 11:17:14;;;;;;;6.23;3.30;;;717.20;1689.60;;;;;;5037696;28;20017;-73
2023/09/04 11:19:39;;;;;;;5.28;3.50;;;717.40;1715.20;;;;;;5029821;28;20036;-72
2023/09/04 11:22:05;;;;;;;6.22;3.10;;;717.10;1689.60;;;;;;5040670;28;20029;-73
2023/09/04 11:24:31;;;;;;;6.68;3.72;;;717.10;1689.60;;;;;;5037890;28;20026;-72
2023/09/04 11:26:56;;;;;;;4.97;2.85;;;691.50;1740.80;;;;;;5042450;28;20048;-72
2023/09/04 11:29:22;;;;;;;5.90;3.33;;;692.10;1740.80;;;;;;5037933;28;20028;-72
2023/09/04 11:31:48;;;;;;;11.98;3.58;;;691.60;1792.00;;;;;;5041361;28;20029;-72
2023/09/04 11:34:23;;;;;;;5.53;3.53;;;692.00;1740.80;;;;;;5038320;28;20038;-73
2023/09/04 11:36:48;;;;;;;4.85;2.85;;;717.10;1740.80;;;;;;5042920;28;20044;-72
2023/09/04 11:39:14;;;;;;;5.10;3.58;;;691.70;1689.60;;;;;;5036922;28;20029;-72
2023/09/04 11:41:40;;;;;;;5.75;3.35;;;716.80;1740.80;;;;;;5034554;28;20034;-72
2023/09/04 11:44:07;;;;;;;7.50;3.00;;;717.40;1715.20;;;;;;5040417;28;20028;-72
2023/09/04 11:46:34;;;;;;;5.13;2.90;;;717.10;1689.60;;;;;;5041557;28;20089;-72
2023/09/04 11:49:01;;;;;;;12.80;3.17;;;692.10;1689.60;;;;;;5040456;28;20034;-74
2023/09/04 11:51:26;;;;;;;5.38;3.55;;;691.60;1740.80;;;;;;5050834;28;20056;-73
2023/09/04 11:53:53;;;;;;;3.92;2.72;;;692.10;1792.00;;;;;;5038616;28;20053;-72
2023/09/04 11:56:19;;;;;;;8.73;3.08;;;717.10;1766.40;;;;;;5045960;28;20040;-72
2023/09/04 11:58:44;;;;;;;8.77;3.20;;;692.10;1766.40;;;;;;5044867;28;20052;-72
2023/09/04 12:01:10;;;;;;;5.32;3.40;;;717.50;1766.40;;;;;;5040491;28;20064;-73
2023/09/04 12:03:36;;;;;;;4.88;2.85;;;717.00;1740.80;;;;;;5044504;28;20112;-72
2023/09/04 12:06:02;;;;;;;8.20;2.90;;;716.90;1715.20;;;;;;5041820;28;20029;-72
2023/09/04 12:08:28;;;;;;;4.72;3.13;;;717.00;1715.20;;;;;;5037323;28;20482;-72
2023/09/04 12:10:55;;;;;;;3.85;2.80;;;717.10;1689.60;;;;;;5040242;28;20041;-73
2023/09/04 12:13:21;;;;;;;4.32;2.35;;;717.40;1664.00;;;;;;5045564;28;20028;-72
2023/09/04 12:15:47;;;;;;;4.18;2.80;;;717.50;1664.00;;;;;;5040264;28;20037;-73